createdAt,value
2018-09-10T00:01:21.969Z,5.30
2018-09-10T00:03:51.143Z,5.10
2018-09-10T00:06:23.009Z,4.90
2018-09-10T00:08:53.087Z,3.70
2018-09-10T00:11:22.092Z,4.50
2018-09-10T00:13:52.476Z,5.07
2018-09-10T00:16:22.616Z,4.90
2018-09-10T00:18:52.754Z,4.27
2018-09-10T00:21:23.629Z,4.50
2018-09-10T00:23:53.908Z,5.30
2018-09-10T00:26:23.373Z,4.97
2018-09-10T00:28:54.097Z,5.67
2018-09-10T00:31:23.608Z,4.40
2018-09-10T00:33:53.775Z,5.00
2018-09-10T00:36:22.097Z,5.70
2018-09-10T00:38:53.302Z,4.83
2018-09-10T00:41:23.292Z,4.50
2018-09-10T00:43:52.671Z,4.50
2018-09-10T00:46:23.385Z,4.83
2018-09-10T00:48:53.491Z,4.47
2018-09-10T00:51:24.240Z,5.90
2018-09-10T00:53:54.140Z,4.30
2018-09-10T00:56:25.298Z,4.80
2018-09-10T00:58:54.788Z,5.87
2018-09-10T01:01:25.478Z,5.27
2018-09-10T01:03:55.165Z,5.47
2018-09-10T01:06:24.538Z,5.47
2018-09-10T01:08:54.345Z,5.37
2018-09-10T01:11:24.277Z,5.60
2018-09-10T01:13:54.068Z,5.53
2018-09-10T01:16:24.084Z,5.70
2018-09-10T01:18:54.662Z,5.57
2018-09-10T01:21:23.981Z,5.30
2018-09-10T01:23:52.528Z,4.80
2018-09-10T01:26:22.644Z,5.13
2018-09-10T01:28:52.702Z,5.33
2018-09-10T01:31:23.330Z,5.60
2018-09-10T01:33:56.844Z,5.90
2018-09-10T01:36:25.265Z,4.77
2018-09-10T01:38:54.618Z,5.40
2018-09-10T01:41:24.516Z,5.87
2018-09-10T01:43:54.665Z,5.20
2018-09-10T01:46:25.488Z,5.57
2018-09-10T01:48:56.235Z,5.50
2018-09-10T01:51:24.585Z,4.83
2018-09-10T01:53:54.116Z,5.30
2018-09-10T01:56:24.612Z,4.70
2018-09-10T01:58:55.424Z,5.93
2018-09-10T02:01:24.813Z,6.03
2018-09-10T02:03:55.628Z,5.60
2018-09-10T02:06:26.196Z,5.63
2018-09-10T02:08:54.577Z,5.00
2018-09-10T02:11:25.388Z,6.40
2018-09-10T02:13:54.903Z,6.20
2018-09-10T02:16:24.317Z,5.73
2018-09-10T02:18:53.791Z,5.63
2018-09-10T02:21:24.165Z,5.23
2018-09-10T02:23:53.581Z,6.00
2018-09-10T02:26:22.593Z,5.40
2018-09-10T02:28:54.189Z,5.00
2018-09-10T02:31:23.417Z,5.37
2018-09-10T02:33:52.528Z,5.50
2018-09-10T02:36:22.604Z,6.40
2018-09-10T02:38:52.613Z,4.63
2018-09-10T02:41:22.561Z,4.83
2018-09-10T02:43:52.429Z,4.90
2018-09-10T02:46:23.080Z,5.17
2018-09-10T02:48:52.556Z,5.03
2018-09-10T02:51:25.258Z,4.70
2018-09-10T02:53:53.828Z,5.13
2018-09-10T02:56:22.161Z,4.63
2018-09-10T02:58:52.990Z,5.00
2018-09-10T03:01:22.454Z,4.77
2018-09-10T03:03:52.146Z,5.00
2018-09-10T03:06:22.133Z,4.53
2018-09-10T03:08:53.473Z,5.30
2018-09-10T03:11:22.454Z,4.50
2018-09-10T03:13:52.656Z,4.70
2018-09-10T03:16:21.107Z,5.00
2018-09-10T03:18:51.134Z,5.17
2018-09-10T03:21:19.470Z,3.97
2018-09-10T03:23:49.722Z,5.07
2018-09-10T03:26:20.413Z,3.90
2018-09-10T03:28:49.976Z,4.10
2018-09-10T03:31:19.810Z,4.70
2018-09-10T03:33:49.592Z,5.20
2018-09-10T03:36:20.215Z,4.50
2018-09-10T03:38:49.921Z,3.93
2018-09-10T03:41:18.764Z,4.90
2018-09-10T03:43:47.242Z,4.63
2018-09-10T03:46:15.676Z,4.33
2018-09-10T03:48:44.018Z,4.93
2018-09-10T03:51:12.363Z,4.43
2018-09-10T03:53:40.698Z,5.37
2018-09-10T03:56:09.133Z,5.00
2018-09-10T03:58:37.497Z,4.87
2018-09-10T04:01:07.423Z,5.30
2018-09-10T04:03:36.753Z,5.00
2018-09-10T04:06:05.106Z,4.90
2018-09-10T04:08:33.771Z,4.57
2018-09-10T04:11:02.117Z,5.47
2018-09-10T04:13:31.457Z,4.37
2018-09-10T04:15:59.781Z,4.30
2018-09-10T04:18:28.161Z,4.53
2018-09-10T04:20:56.496Z,5.00
2018-09-10T04:23:24.846Z,5.03
2018-09-10T04:25:57.165Z,5.57
2018-09-10T04:28:26.436Z,5.00
2018-09-10T04:30:54.797Z,6.10
2018-09-10T04:33:24.214Z,5.20
2018-09-10T04:35:54.143Z,5.90
2018-09-10T04:38:24.371Z,5.73
2018-09-10T04:40:54.275Z,5.90
2018-09-10T04:43:29.413Z,6.43
2018-09-10T04:45:58.313Z,6.20
2018-09-10T04:48:27.531Z,6.27
2018-09-10T04:50:56.912Z,6.00
2018-09-10T04:53:26.568Z,5.50
2018-09-10T04:55:56.792Z,5.83
2018-09-10T04:58:26.584Z,5.20
2018-09-10T05:00:54.925Z,5.90
2018-09-10T05:03:24.272Z,5.50
2018-09-10T05:05:55.133Z,5.10
2018-09-10T05:08:24.465Z,5.20
2018-09-10T05:10:54.810Z,5.37
2018-09-10T05:13:23.747Z,5.30
2018-09-10T05:15:55.130Z,5.30
2018-09-10T05:18:24.492Z,5.00
2018-09-10T05:20:54.277Z,6.10
2018-09-10T05:23:25.481Z,5.10
2018-09-10T05:25:56.040Z,4.90
2018-09-10T05:28:25.518Z,5.10
2018-09-10T05:30:56.169Z,6.27
2018-09-10T05:33:25.436Z,5.30
2018-09-10T05:35:55.967Z,5.47
2018-09-10T05:38:25.338Z,4.67
2018-09-10T05:40:54.498Z,4.70
2018-09-10T05:43:23.503Z,5.73
2018-09-10T05:45:53.888Z,4.33
2018-09-10T05:48:23.503Z,5.40
2018-09-10T05:50:54.305Z,4.63
2018-09-10T05:53:24.651Z,4.60
2018-09-10T05:55:56.413Z,4.00
2018-09-10T05:58:25.645Z,5.10
2018-09-10T06:00:55.708Z,4.50
2018-09-10T06:03:26.356Z,4.87
2018-09-10T06:05:56.085Z,4.83
2018-09-10T06:08:25.469Z,4.97
2018-09-10T06:10:54.328Z,5.00
2018-09-10T06:13:24.009Z,4.70
2018-09-10T06:15:54.905Z,4.30
2018-09-10T06:18:24.273Z,4.83
2018-09-10T06:20:55.502Z,5.17
2018-09-10T06:23:24.830Z,5.23
2018-09-10T06:25:56.106Z,4.67
2018-09-10T06:28:24.430Z,5.47
2018-09-10T06:30:54.193Z,5.23
2018-09-10T06:33:22.928Z,5.20
2018-09-10T06:35:55.492Z,4.70
2018-09-10T06:38:24.968Z,4.67
2018-09-10T06:40:54.724Z,5.20
2018-09-10T06:43:24.941Z,5.20
2018-09-10T06:45:55.417Z,4.57
2018-09-10T06:48:24.651Z,4.27
2018-09-10T06:50:55.502Z,5.00
2018-09-10T06:53:24.890Z,3.93
2018-09-10T06:55:54.913Z,4.70
2018-09-10T06:58:23.717Z,3.30
2018-09-10T07:00:52.597Z,4.07
2018-09-10T07:03:22.165Z,4.03
2018-09-10T07:05:52.956Z,4.13
2018-09-10T07:08:24.333Z,5.30
2018-09-10T07:10:55.130Z,4.13
2018-09-10T07:13:24.960Z,4.27
2018-09-10T07:15:55.930Z,3.50
2018-09-10T07:18:25.299Z,3.10
2018-09-10T07:20:54.526Z,3.80
2018-09-10T07:26:02.296Z,3.20
2018-09-10T07:28:31.543Z,3.47
2018-09-10T07:30:59.904Z,3.40
2018-09-10T07:33:29.215Z,3.60
2018-09-10T07:35:58.436Z,3.10
2018-09-10T07:38:27.689Z,3.80
2018-09-10T07:40:56.276Z,3.00
2018-09-10T07:43:25.527Z,2.80
2018-09-10T07:45:56.409Z,2.83
2018-09-10T07:48:24.933Z,3.70
2018-09-10T07:50:54.628Z,4.03
2018-09-10T07:53:23.617Z,2.77
2018-09-10T07:55:53.627Z,3.37
2018-09-10T07:58:22.474Z,3.00
2018-09-10T08:00:52.605Z,3.03
2018-09-10T08:03:22.505Z,2.50
2018-09-10T08:05:54.119Z,2.60
2018-09-10T08:08:23.385Z,2.13
2018-09-10T08:10:52.216Z,3.10
2018-09-10T08:13:20.592Z,2.73
2018-09-10T08:15:49.807Z,2.63
2018-09-10T08:18:18.866Z,2.40
2018-09-10T08:20:47.205Z,2.47
2018-09-10T08:23:16.404Z,2.93
2018-09-10T08:25:44.896Z,2.00
2018-09-10T08:28:13.328Z,2.57
2018-09-10T08:30:41.837Z,2.50
2018-09-10T08:33:11.252Z,2.53
2018-09-10T08:35:40.593Z,2.20
2018-09-10T08:38:08.941Z,3.10
2018-09-10T08:40:37.293Z,2.57
2018-09-10T08:43:06.123Z,2.50
2018-09-10T08:45:34.492Z,2.23
2018-09-10T08:48:02.846Z,2.70
2018-09-10T08:50:31.254Z,2.30
2018-09-10T08:52:59.753Z,2.10
2018-09-10T08:55:28.161Z,2.47
2018-09-10T08:57:57.508Z,3.20
2018-09-10T09:00:27.510Z,2.50
2018-09-10T09:02:55.886Z,2.60
2018-09-10T09:05:24.209Z,2.60
2018-09-10T09:07:52.941Z,2.30
2018-09-10T09:10:22.502Z,2.23
2018-09-10T09:12:53.517Z,2.83
2018-09-10T09:15:23.617Z,2.60
2018-09-10T09:17:52.619Z,2.30
2018-09-10T09:20:22.532Z,1.90
2018-09-10T09:22:53.574Z,2.20
2018-09-10T09:25:22.687Z,2.30
2018-09-10T09:27:53.372Z,2.10
2018-09-10T09:30:23.575Z,2.20
2018-09-10T09:32:52.542Z,2.30
2018-09-10T09:35:27.200Z,1.90
2018-09-10T09:38:00.941Z,2.33
2018-09-10T09:40:34.661Z,2.30
2018-09-10T09:43:08.665Z,2.90
2018-09-10T09:45:42.515Z,2.60
2018-09-10T09:48:10.974Z,2.50
2018-09-10T09:50:40.619Z,1.83
2018-09-10T09:53:08.988Z,2.20
2018-09-10T09:55:38.212Z,3.17
2018-09-10T09:58:06.653Z,2.13
2018-09-10T10:00:41.406Z,2.20
2018-09-10T10:04:14.902Z,2.20
2018-09-10T10:06:43.255Z,1.60
2018-09-10T10:09:13.064Z,1.90
2018-09-10T10:11:41.840Z,2.20
2018-09-10T10:14:10.933Z,1.77
2018-09-10T10:16:39.661Z,2.10
2018-09-10T10:19:09.145Z,1.90
2018-09-10T10:21:37.521Z,1.57
2018-09-10T10:24:05.929Z,1.87
2018-09-10T10:26:34.282Z,1.80
2018-09-10T10:29:02.807Z,1.60
2018-09-10T10:31:31.213Z,1.80
2018-09-10T10:34:00.424Z,2.23
2018-09-10T10:36:28.969Z,1.67
2018-09-10T10:38:57.354Z,1.53
2018-09-10T10:41:25.685Z,1.20
2018-09-10T10:43:54.720Z,1.40
2018-09-10T10:46:25.324Z,1.93
2018-09-10T10:48:54.757Z,1.90
2018-09-10T10:51:24.172Z,1.57
2018-09-10T10:53:54.277Z,1.40
2018-09-10T10:56:24.101Z,1.43
2018-09-10T10:58:53.269Z,1.60
2018-09-10T11:01:22.208Z,2.63
2018-09-10T11:03:52.907Z,2.20
2018-09-10T11:06:24.075Z,1.63
2018-09-10T11:08:53.261Z,1.70
2018-09-10T11:11:22.862Z,2.53
2018-09-10T11:13:52.287Z,2.97
2018-09-10T11:16:23.033Z,1.70
2018-09-10T11:18:53.805Z,1.83
2018-09-10T11:21:22.169Z,1.90
2018-09-10T11:23:52.177Z,1.80
2018-09-10T11:26:22.258Z,1.50
2018-09-10T11:28:52.097Z,1.70
2018-09-10T11:31:22.746Z,1.70
2018-09-10T11:33:52.226Z,1.90
2018-09-10T11:36:21.632Z,1.87
2018-09-10T11:38:50.217Z,1.80
2018-09-10T11:41:18.993Z,1.73
2018-09-10T11:43:47.324Z,2.20
2018-09-10T11:46:15.676Z,2.03
2018-09-10T11:48:44.006Z,1.90
2018-09-10T11:51:12.365Z,2.20
2018-09-10T11:53:41.589Z,2.10
2018-09-10T11:56:10.247Z,1.70
2018-09-10T11:58:38.565Z,1.80
2018-09-10T12:01:06.914Z,1.73
2018-09-10T12:03:35.253Z,2.00
2018-09-10T12:06:03.630Z,2.20
2018-09-10T12:08:33.009Z,1.60
2018-09-10T12:11:01.395Z,1.77
2018-09-10T12:13:30.012Z,1.47
2018-09-10T12:15:58.729Z,1.40
2018-09-10T12:18:27.977Z,2.13
2018-09-10T12:20:56.301Z,1.83
2018-09-10T12:23:24.620Z,1.70
2018-09-10T12:25:54.393Z,2.40
2018-09-10T12:28:23.707Z,1.50
2018-09-10T12:30:52.841Z,1.90
2018-09-10T12:33:22.801Z,2.03
2018-09-10T12:35:52.961Z,1.90
2018-09-10T12:38:23.052Z,2.23
2018-09-10T12:40:52.632Z,2.00
2018-09-10T12:43:22.500Z,1.70
2018-09-10T12:45:54.189Z,2.17
2018-09-10T12:48:23.865Z,1.60
2018-09-10T12:50:53.494Z,2.10
2018-09-10T12:53:24.047Z,2.10
2018-09-10T12:55:54.056Z,1.83
2018-09-10T12:58:23.269Z,1.77
2018-09-10T13:00:53.038Z,1.70
2018-09-10T13:03:22.515Z,1.80
2018-09-10T13:05:52.880Z,1.50
2018-09-10T13:08:22.153Z,1.73
2018-09-10T13:10:51.178Z,1.60
2018-09-10T13:13:20.081Z,2.43
2018-09-10T13:15:50.149Z,1.83
2018-09-10T13:18:19.102Z,2.50
2018-09-10T13:20:47.446Z,2.37
2018-09-10T13:23:16.749Z,2.20
2018-09-10T13:25:46.034Z,1.73
2018-09-10T13:28:14.369Z,1.53
2018-09-10T13:30:42.713Z,2.90
2018-09-10T13:33:11.086Z,2.03
2018-09-10T13:35:39.426Z,1.80
2018-09-10T13:38:08.825Z,1.90
2018-09-10T13:40:38.158Z,2.00
2018-09-10T13:43:06.788Z,1.97
2018-09-10T13:45:36.088Z,1.80
2018-09-10T13:48:05.657Z,2.20
2018-09-10T13:50:34.137Z,2.00
2018-09-10T13:53:02.484Z,1.60
2018-09-10T13:55:31.823Z,1.63
2018-09-10T13:58:00.169Z,1.43
2018-09-10T14:00:29.285Z,1.60
2018-09-10T14:02:57.657Z,1.90
2018-09-10T14:05:27.010Z,1.60
2018-09-10T14:07:55.476Z,1.90
2018-09-10T14:10:24.549Z,2.20
2018-09-10T14:12:53.457Z,2.10
2018-09-10T14:15:22.717Z,2.00
2018-09-10T14:17:52.699Z,1.50
2018-09-10T14:20:22.148Z,1.83
2018-09-10T14:22:52.373Z,1.63
2018-09-10T14:25:22.747Z,1.80
2018-09-10T14:27:52.548Z,1.60
2018-09-10T14:30:22.512Z,2.00
2018-09-10T14:32:51.520Z,1.80
2018-09-10T14:35:20.637Z,2.27
2018-09-10T14:37:49.906Z,1.97
2018-09-10T14:40:18.347Z,1.50
2018-09-10T14:42:49.110Z,2.07
2018-09-10T14:45:17.681Z,2.07
2018-09-10T14:47:46.014Z,2.13
2018-09-10T14:50:14.394Z,1.80
2018-09-10T14:52:42.724Z,2.30
2018-09-10T14:55:11.056Z,1.77
2018-09-10T14:57:40.273Z,1.73
2018-09-10T15:00:11.510Z,2.63
2018-09-10T15:02:40.061Z,3.47
2018-09-10T15:05:09.571Z,2.23
2018-09-10T15:07:37.931Z,1.63
2018-09-10T15:10:06.254Z,2.10
2018-09-10T15:12:34.616Z,1.77
2018-09-10T15:15:03.081Z,1.93
2018-09-10T15:17:31.555Z,1.97
2018-09-10T15:19:59.879Z,1.70
2018-09-10T15:22:29.166Z,1.63
2018-09-10T15:24:57.624Z,1.63
2018-09-10T15:27:28.674Z,2.10
2018-09-10T15:29:57.313Z,1.93
2018-09-10T15:32:25.704Z,1.77
2018-09-10T15:34:54.877Z,2.00
2018-09-10T15:37:25.504Z,2.60
2018-09-10T15:39:55.169Z,1.93
2018-09-10T15:42:24.161Z,1.80
2018-09-10T15:44:53.182Z,2.17
2018-09-10T15:47:22.369Z,1.97
2018-09-10T15:49:53.319Z,2.50
2018-09-10T15:52:23.103Z,3.10
2018-09-10T15:54:52.505Z,2.17
2018-09-10T15:57:23.566Z,2.30
2018-09-10T15:59:52.138Z,2.60
2018-09-10T16:02:22.672Z,2.67
2018-09-10T16:04:52.741Z,2.43
2018-09-10T16:07:22.123Z,1.90
2018-09-10T16:09:52.516Z,2.40
2018-09-10T16:12:21.008Z,2.30
2018-09-10T16:14:50.333Z,2.37
2018-09-10T16:17:20.290Z,2.43
2018-09-10T16:19:48.699Z,2.20
2018-09-10T16:22:17.929Z,2.57
2018-09-10T16:24:46.437Z,1.97
2018-09-10T16:27:15.739Z,3.20
2018-09-10T16:29:44.249Z,2.87
2018-09-10T16:32:13.457Z,2.40
2018-09-10T16:34:41.853Z,3.30
2018-09-10T16:37:10.968Z,3.33
2018-09-10T16:39:40.258Z,4.00
2018-09-10T16:42:08.663Z,4.57
2018-09-10T16:44:37.093Z,5.80
2018-09-10T16:47:06.366Z,5.90
2018-09-10T16:49:34.796Z,6.07
2018-09-10T16:52:04.180Z,6.10
2018-09-10T16:54:33.454Z,5.20
2018-09-10T16:57:02.030Z,5.00
2018-09-10T16:59:30.529Z,4.50
2018-09-10T17:01:58.976Z,5.10
2018-09-10T17:04:27.301Z,3.90
2018-09-10T17:06:55.666Z,4.47
2018-09-10T17:09:24.955Z,4.23
2018-09-10T17:11:54.308Z,4.10
2018-09-10T17:14:24.593Z,3.77
2018-09-10T17:16:53.219Z,3.67
2018-09-10T17:19:22.261Z,3.00
2018-09-10T17:21:52.258Z,3.00
2018-09-10T17:24:21.849Z,2.50
2018-09-10T17:26:53.457Z,2.50
2018-09-10T17:29:22.496Z,2.97
2018-09-10T17:31:53.112Z,3.10
2018-09-10T17:34:22.353Z,2.23
2018-09-10T17:36:52.024Z,2.90
2018-09-10T17:39:21.262Z,2.40
2018-09-10T17:41:50.369Z,2.70
2018-09-10T17:44:19.294Z,2.97
2018-09-10T17:46:49.298Z,2.50
2018-09-10T17:49:18.816Z,2.83
2018-09-10T17:51:47.449Z,2.50
2018-09-10T17:54:16.772Z,2.50
2018-09-10T17:56:45.197Z,2.53
2018-09-10T17:59:14.511Z,2.60
2018-09-10T18:01:43.740Z,4.00
2018-09-10T18:04:12.107Z,3.17
2018-09-10T18:06:40.422Z,3.60
2018-09-10T18:09:10.441Z,3.13
2018-09-10T18:11:38.922Z,2.70
2018-09-10T18:14:07.460Z,2.93
2018-09-10T18:16:36.657Z,2.67
2018-09-10T18:19:04.989Z,3.20
2018-09-10T18:21:35.065Z,2.83
2018-09-10T18:24:04.150Z,2.40
2018-09-10T18:26:32.475Z,2.20
2018-09-10T18:29:01.289Z,2.97
2018-09-10T18:31:29.661Z,2.70
2018-09-10T18:33:58.031Z,3.30
2018-09-10T18:36:26.499Z,3.07
2018-09-10T18:38:55.005Z,3.00
2018-09-10T18:41:25.078Z,3.40
2018-09-10T18:43:54.459Z,2.97
2018-09-10T18:46:23.843Z,2.87
2018-09-10T18:48:52.245Z,2.40
2018-09-10T18:51:21.616Z,3.33
2018-09-10T18:53:52.206Z,3.00
2018-09-10T18:56:22.713Z,3.73
2018-09-10T18:58:53.109Z,3.40
2018-09-10T19:01:23.136Z,3.37
2018-09-10T19:03:53.309Z,3.70
2018-09-10T19:06:23.050Z,3.30
2018-09-10T19:08:52.911Z,3.13
2018-09-10T19:11:23.421Z,3.90
2018-09-10T19:13:53.621Z,3.80
2018-09-10T19:16:22.770Z,3.57
2018-09-10T19:18:52.782Z,3.73
2018-09-10T19:21:22.262Z,3.83
2018-09-10T19:23:52.589Z,3.20
2018-09-10T19:26:22.835Z,3.13
2018-09-10T19:28:52.985Z,3.70
2018-09-10T19:31:23.711Z,3.37
2018-09-10T19:33:54.597Z,3.90
2018-09-10T19:36:23.842Z,3.83
2018-09-10T19:38:54.594Z,4.03
2018-09-10T19:41:24.088Z,3.10
2018-09-10T19:43:54.392Z,3.90
2018-09-10T19:46:23.746Z,4.13
2018-09-10T19:48:52.893Z,3.97
2018-09-10T19:51:23.022Z,4.13
2018-09-10T19:53:53.957Z,3.97
2018-09-10T19:56:23.200Z,3.60
2018-09-10T19:58:53.359Z,3.90
2018-09-10T20:01:23.957Z,3.60
2018-09-10T20:03:53.121Z,3.90
2018-09-10T20:06:23.309Z,4.30
2018-09-10T20:08:53.590Z,4.60
2018-09-10T20:11:22.770Z,4.40
2018-09-10T20:13:53.188Z,3.70
2018-09-10T20:16:24.175Z,4.43
2018-09-10T20:18:53.942Z,4.33
2018-09-10T20:21:23.942Z,3.57
2018-09-10T20:23:53.713Z,4.73
2018-09-10T20:26:22.431Z,3.23
2018-09-10T20:28:52.739Z,3.53
2018-09-10T20:31:21.063Z,4.00
2018-09-10T20:33:56.355Z,3.80
2018-09-10T20:36:24.686Z,2.70
2018-09-10T20:38:54.062Z,3.70
2018-09-10T20:41:24.129Z,2.83
2018-09-10T20:43:53.212Z,3.43
2018-09-10T20:46:23.089Z,3.80
2018-09-10T20:48:53.501Z,3.57
2018-09-10T20:51:23.797Z,3.60
2018-09-10T20:53:52.151Z,3.20
2018-09-10T20:56:21.198Z,2.97
2018-09-10T20:58:52.375Z,3.40
2018-09-10T21:01:22.551Z,3.57
2018-09-10T21:03:54.069Z,3.70
2018-09-10T21:06:25.020Z,3.00
2018-09-10T21:08:55.452Z,3.30
2018-09-10T21:11:24.926Z,3.37
2018-09-10T21:13:54.881Z,3.87
2018-09-10T21:16:25.325Z,4.60
2018-09-10T21:18:54.857Z,3.07
2018-09-10T21:21:23.954Z,3.53
2018-09-10T21:23:53.320Z,3.77
2018-09-10T21:26:22.985Z,3.53
2018-09-10T21:28:53.512Z,3.20
2018-09-10T21:31:24.939Z,3.13
2018-09-10T21:33:54.234Z,3.30
2018-09-10T21:36:22.855Z,3.37
2018-09-10T21:38:52.638Z,3.10
2018-09-10T21:41:24.308Z,3.37
2018-09-10T21:43:53.670Z,3.40
2018-09-10T21:46:22.557Z,3.60
2018-09-10T21:48:52.783Z,3.20
2018-09-10T21:51:22.721Z,2.63
2018-09-10T21:53:53.193Z,3.20
2018-09-10T21:56:23.226Z,3.60
2018-09-10T21:58:54.091Z,3.80
2018-09-10T22:01:23.208Z,3.30
2018-09-10T22:03:53.200Z,3.40
2018-09-10T22:06:23.569Z,2.87
2018-09-10T22:08:54.436Z,3.50
2018-09-10T22:11:23.889Z,3.40
2018-09-10T22:13:54.570Z,2.90
2018-09-10T22:16:24.045Z,2.90
2018-09-10T22:18:53.451Z,3.07
2018-09-10T22:21:24.341Z,3.27
2018-09-10T22:23:53.388Z,3.77
2018-09-10T22:26:22.532Z,3.80
2018-09-10T22:28:53.150Z,3.20
2018-09-10T22:31:22.616Z,3.00
2018-09-10T22:33:52.764Z,3.23
2018-09-10T22:36:23.392Z,3.13
2018-09-10T22:38:57.856Z,3.27
2018-09-10T22:41:26.352Z,2.87
2018-09-10T22:43:54.706Z,3.40
2018-09-10T22:46:24.377Z,3.43
2018-09-10T22:48:55.814Z,3.23
2018-09-10T22:51:24.205Z,3.70
2018-09-10T22:53:53.233Z,2.90
2018-09-10T22:56:23.706Z,3.40
2018-09-10T22:58:53.735Z,3.00
2018-09-10T23:01:23.473Z,2.80
2018-09-10T23:03:53.631Z,2.53
2018-09-10T23:06:24.059Z,3.60
2018-09-10T23:08:53.596Z,3.07
2018-09-10T23:11:24.368Z,3.00
2018-09-10T23:13:53.553Z,2.90
2018-09-10T23:16:24.571Z,3.20
2018-09-10T23:18:54.327Z,3.23
2018-09-10T23:21:24.676Z,3.47
2018-09-10T23:23:55.396Z,3.70
2018-09-10T23:26:24.661Z,3.47
2018-09-10T23:28:54.132Z,3.00
2018-09-10T23:31:23.597Z,3.10
2018-09-10T23:33:53.083Z,3.20
2018-09-10T23:36:23.373Z,3.40
2018-09-10T23:38:53.312Z,3.37
2018-09-10T23:41:23.760Z,2.93
2018-09-10T23:43:52.746Z,3.27
2018-09-10T23:46:22.635Z,3.90
2018-09-10T23:48:54.456Z,3.10
2018-09-10T23:51:23.384Z,3.47
2018-09-10T23:53:53.606Z,3.00
2018-09-10T23:56:24.300Z,2.90
2018-09-10T23:58:54.929Z,3.13
